createdAt,value
2023-03-15T00:00:39.628Z,0.00
2023-03-15T00:01:39.964Z,0.00
2023-03-15T00:02:40.190Z,0.00
2023-03-15T00:03:40.608Z,0.00
2023-03-15T00:04:40.839Z,0.00
2023-03-15T00:05:40.996Z,0.00
2023-03-15T00:06:41.348Z,0.00
2023-03-15T00:07:41.655Z,0.00
2023-03-15T00:08:41.935Z,0.00
2023-03-15T00:09:42.297Z,0.00
2023-03-15T00:10:42.609Z,0.00
2023-03-15T00:11:42.906Z,0.00
2023-03-15T00:12:43.204Z,0.00
2023-03-15T00:13:43.460Z,0.00
2023-03-15T00:14:43.838Z,0.00
2023-03-15T00:15:44.137Z,0.00
2023-03-15T00:16:44.445Z,0.00
2023-03-15T00:17:44.888Z,0.00
2023-03-15T00:18:45.068Z,0.00
2023-03-15T00:19:45.279Z,0.00
2023-03-15T00:20:46.499Z,0.00
2023-03-15T00:21:45.787Z,0.00
2023-03-15T00:22:46.106Z,0.00
2023-03-15T00:23:46.421Z,0.00
2023-03-15T00:24:46.715Z,0.00
2023-03-15T00:25:47.021Z,0.00
2023-03-15T00:26:47.377Z,0.00
2023-03-15T00:27:47.675Z,0.00
2023-03-15T00:28:48.004Z,0.00
2023-03-15T00:29:48.306Z,0.00
2023-03-15T00:30:48.653Z,0.00
2023-03-15T00:31:48.866Z,0.00
2023-03-15T00:32:49.233Z,0.00
2023-03-15T00:33:49.532Z,0.00
2023-03-15T00:34:49.882Z,0.00
2023-03-15T00:35:50.163Z,0.00
2023-03-15T00:36:50.444Z,0.00
2023-03-15T00:37:50.715Z,0.00
2023-03-15T00:38:51.007Z,0.00
2023-03-15T00:39:51.330Z,0.00
2023-03-15T00:40:51.659Z,0.00
2023-03-15T00:41:51.934Z,0.00
2023-03-15T00:42:52.348Z,0.00
2023-03-15T00:43:52.507Z,0.00
2023-03-15T00:44:52.856Z,0.00
2023-03-15T00:45:53.054Z,0.00
2023-03-15T00:46:53.402Z,0.00
2023-03-15T00:47:53.640Z,0.00
2023-03-15T00:48:53.923Z,0.00
2023-03-15T00:49:54.269Z,0.00
2023-03-15T00:50:54.589Z,0.00
2023-03-15T00:51:54.862Z,0.00
2023-03-15T00:52:55.152Z,0.00
2023-03-15T00:53:55.481Z,0.00
2023-03-15T00:54:55.803Z,0.00
2023-03-15T00:55:56.090Z,0.00
2023-03-15T00:56:56.384Z,0.00
2023-03-15T00:57:56.684Z,0.00
2023-03-15T00:58:56.937Z,0.00
2023-03-15T00:59:57.261Z,0.00
2023-03-15T01:00:57.576Z,0.00
2023-03-15T01:01:57.923Z,0.00
2023-03-15T01:02:58.212Z,0.00
2023-03-15T01:03:58.456Z,0.00
2023-03-15T01:04:58.797Z,0.00
2023-03-15T01:05:59.054Z,0.00
2023-03-15T01:06:59.479Z,0.00
2023-03-15T01:07:59.736Z,0.00
2023-03-15T01:08:59.992Z,0.00
2023-03-15T01:10:00.338Z,0.00
2023-03-15T01:11:00.625Z,0.00
2023-03-15T01:12:00.931Z,0.00
2023-03-15T01:13:01.231Z,0.00
2023-03-15T01:14:01.578Z,0.00
2023-03-15T01:15:01.801Z,0.00
2023-03-15T01:16:02.124Z,0.00
2023-03-15T01:17:02.417Z,0.00
2023-03-15T01:18:02.818Z,0.00
2023-03-15T01:19:03.089Z,0.00
2023-03-15T01:20:03.801Z,0.00
2023-03-15T01:21:03.667Z,0.00
2023-03-15T01:22:03.959Z,0.00
2023-03-15T01:23:04.273Z,0.00
2023-03-15T01:24:04.555Z,0.00
2023-03-15T01:25:05.896Z,0.00
2023-03-15T01:26:05.214Z,0.00
2023-03-15T01:27:05.528Z,0.00
2023-03-15T01:28:05.816Z,0.00
2023-03-15T01:29:06.120Z,0.00
2023-03-15T01:30:06.453Z,0.00
2023-03-15T01:31:06.783Z,0.00
2023-03-15T01:32:07.112Z,0.00
2023-03-15T01:33:07.451Z,0.00
2023-03-15T01:34:07.761Z,0.00
2023-03-15T01:35:08.056Z,0.00
2023-03-15T01:36:08.351Z,0.00
2023-03-15T01:37:08.653Z,0.00
2023-03-15T01:38:08.961Z,0.00
2023-03-15T01:39:09.270Z,0.00
2023-03-15T01:40:09.574Z,0.00
2023-03-15T01:41:09.838Z,0.00
2023-03-15T01:42:10.177Z,0.00
2023-03-15T01:43:10.438Z,0.00
2023-03-15T01:44:10.669Z,0.00
2023-03-15T01:45:11.035Z,0.00
2023-03-15T01:46:11.312Z,0.00
2023-03-15T01:47:11.695Z,0.00
2023-03-15T01:48:11.962Z,0.00
2023-03-15T01:49:12.164Z,0.00
2023-03-15T01:50:12.457Z,0.00
2023-03-15T01:51:12.741Z,0.00
2023-03-15T01:52:13.058Z,0.00
2023-03-15T01:53:13.433Z,0.00
2023-03-15T01:54:13.690Z,0.00
2023-03-15T01:55:13.944Z,0.00
2023-03-15T01:56:14.163Z,0.00
2023-03-15T01:57:14.516Z,0.00
2023-03-15T01:58:14.744Z,0.00
2023-03-15T01:59:15.012Z,0.00
2023-03-15T02:00:15.357Z,0.00
2023-03-15T02:01:15.750Z,0.00
2023-03-15T02:02:15.999Z,0.00
2023-03-15T02:03:16.281Z,0.00
2023-03-15T02:04:16.451Z,0.00
2023-03-15T02:05:16.780Z,0.00
2023-03-15T02:06:17.158Z,0.00
2023-03-15T02:07:17.329Z,0.00
2023-03-15T02:08:17.632Z,0.00
2023-03-15T02:09:17.829Z,0.00
2023-03-15T02:10:18.170Z,0.00
2023-03-15T02:11:18.513Z,0.00
2023-03-15T02:12:18.778Z,0.00
2023-03-15T02:13:19.155Z,0.00
2023-03-15T02:14:19.421Z,0.00
2023-03-15T02:15:19.770Z,0.00
2023-03-15T02:16:20.124Z,0.00
2023-03-15T02:17:20.432Z,0.00
2023-03-15T02:18:20.744Z,0.00
2023-03-15T02:19:21.012Z,0.00
2023-03-15T02:20:21.381Z,0.00
2023-03-15T02:21:21.730Z,0.00
2023-03-15T02:22:22.013Z,0.00
2023-03-15T02:23:22.312Z,0.00
2023-03-15T02:24:22.596Z,0.00
2023-03-15T02:25:22.953Z,0.00
2023-03-15T02:26:23.268Z,0.00
2023-03-15T02:27:23.681Z,0.00
2023-03-15T02:28:23.924Z,0.00
2023-03-15T02:29:24.130Z,0.00
2023-03-15T02:30:24.415Z,0.00
2023-03-15T02:31:24.795Z,0.00
2023-03-15T02:32:25.073Z,0.00
2023-03-15T02:33:25.404Z,0.00
2023-03-15T02:34:25.751Z,0.00
2023-03-15T02:35:26.025Z,0.00
2023-03-15T02:36:26.273Z,0.00
2023-03-15T02:37:26.591Z,0.00
2023-03-15T02:38:26.937Z,0.00
2023-03-15T02:39:27.308Z,0.00
2023-03-15T02:40:27.518Z,0.00
2023-03-15T02:41:27.796Z,0.00
2023-03-15T02:42:28.110Z,0.00
2023-03-15T02:43:28.833Z,0.00
2023-03-15T02:44:28.710Z,0.00
2023-03-15T02:45:29.025Z,0.00
2023-03-15T02:46:29.332Z,0.00
2023-03-15T02:47:29.645Z,0.00
2023-03-15T02:48:29.934Z,0.00
2023-03-15T02:49:30.246Z,0.00
2023-03-15T02:50:30.617Z,0.00
2023-03-15T02:51:30.858Z,0.00
2023-03-15T02:52:31.058Z,0.00
2023-03-15T02:53:31.355Z,0.00
2023-03-15T02:54:31.671Z,0.00
2023-03-15T02:55:31.960Z,0.00
2023-03-15T02:56:32.304Z,0.00
2023-03-15T02:57:32.688Z,0.00
2023-03-15T02:58:32.846Z,0.00
2023-03-15T02:59:33.170Z,0.00
2023-03-15T03:00:33.450Z,0.00
2023-03-15T03:01:33.730Z,0.00
2023-03-15T03:02:34.201Z,0.00
2023-03-15T03:03:34.417Z,0.00
2023-03-15T03:04:34.589Z,0.00
2023-03-15T03:05:34.852Z,0.00
2023-03-15T03:06:35.168Z,0.00
2023-03-15T03:07:35.529Z,0.00
2023-03-15T03:08:35.810Z,0.00
2023-03-15T03:09:36.106Z,0.00
2023-03-15T03:10:36.411Z,0.00
2023-03-15T03:11:36.736Z,0.00
2023-03-15T03:12:36.998Z,0.00
2023-03-15T03:13:37.352Z,0.00
2023-03-15T03:14:37.667Z,0.00
2023-03-15T03:15:37.953Z,0.00
2023-03-15T03:16:38.259Z,0.00
2023-03-15T03:17:38.601Z,0.00
2023-03-15T03:18:38.831Z,0.00
2023-03-15T03:19:39.195Z,0.00
2023-03-15T03:20:39.385Z,0.00
2023-03-15T03:21:39.746Z,0.00
2023-03-15T03:22:40.053Z,0.00
2023-03-15T03:23:40.361Z,0.00
2023-03-15T03:24:40.630Z,0.00
2023-03-15T03:25:40.968Z,0.00
2023-03-15T03:26:41.193Z,0.00
2023-03-15T03:27:41.526Z,0.00
2023-03-15T03:28:41.820Z,0.00
2023-03-15T03:29:42.117Z,0.00
2023-03-15T03:30:42.460Z,0.00
2023-03-15T03:31:42.697Z,0.00
2023-03-15T03:32:43.057Z,0.00
2023-03-15T03:33:43.238Z,0.00
2023-03-15T03:34:43.545Z,0.00
2023-03-15T03:35:43.846Z,0.00
2023-03-15T03:36:44.163Z,0.00
2023-03-15T03:37:44.447Z,0.00
2023-03-15T03:38:44.777Z,0.00
2023-03-15T03:39:45.133Z,0.00
2023-03-15T03:40:45.429Z,0.00
2023-03-15T03:41:45.720Z,0.00
2023-03-15T03:42:46.049Z,0.00
2023-03-15T03:43:46.390Z,0.00
2023-03-15T03:44:46.612Z,0.00
2023-03-15T03:45:46.913Z,0.00
2023-03-15T03:46:47.120Z,0.00
2023-03-15T03:47:48.335Z,0.00
2023-03-15T03:48:47.763Z,0.00
2023-03-15T03:49:48.073Z,0.00
2023-03-15T03:50:48.408Z,0.00
2023-03-15T03:51:48.621Z,0.00
2023-03-15T03:52:49.820Z,0.00
2023-03-15T03:53:49.252Z,0.00
2023-03-15T03:54:49.598Z,0.00
2023-03-15T03:55:49.796Z,0.00
2023-03-15T03:56:50.116Z,0.00
2023-03-15T03:57:50.515Z,0.00
2023-03-15T03:58:50.675Z,0.00
2023-03-15T03:59:51.025Z,0.00
2023-03-15T04:00:51.327Z,0.00
2023-03-15T04:01:51.603Z,0.00
2023-03-15T04:02:52.048Z,0.00
2023-03-15T04:03:52.226Z,0.00
2023-03-15T04:04:52.592Z,0.00
2023-03-15T04:05:52.876Z,0.00
2023-03-15T04:06:53.184Z,0.00
2023-03-15T04:07:53.451Z,0.00
2023-03-15T04:08:53.801Z,0.00
2023-03-15T04:09:54.086Z,0.00
2023-03-15T04:10:54.375Z,0.00
2023-03-15T04:11:54.736Z,0.00
2023-03-15T04:12:55.098Z,0.00
2023-03-15T04:13:55.311Z,0.00
2023-03-15T04:14:55.570Z,0.00
2023-03-15T04:15:55.935Z,0.00
2023-03-15T04:16:56.329Z,0.00
2023-03-15T04:17:56.501Z,0.00
2023-03-15T04:18:56.858Z,0.00
2023-03-15T04:19:57.172Z,0.00
2023-03-15T04:20:57.439Z,0.00
2023-03-15T04:21:57.756Z,0.00
2023-03-15T04:22:58.096Z,0.00
2023-03-15T04:23:58.413Z,0.00
2023-03-15T04:24:58.703Z,0.00
2023-03-15T04:25:58.997Z,0.00
2023-03-15T04:26:59.327Z,0.00
2023-03-15T04:27:59.637Z,0.00
2023-03-15T04:28:59.853Z,0.00
2023-03-15T04:30:00.236Z,0.00
2023-03-15T04:31:00.487Z,0.00
2023-03-15T04:32:00.735Z,0.00
2023-03-15T04:33:01.089Z,0.00
2023-03-15T04:34:01.301Z,0.00
2023-03-15T04:35:01.645Z,0.00
2023-03-15T04:36:01.992Z,0.00
2023-03-15T04:37:02.162Z,0.00
2023-03-15T04:38:02.567Z,0.00
2023-03-15T04:39:02.764Z,0.00
2023-03-15T04:40:03.036Z,0.00
2023-03-15T04:41:03.346Z,0.00
2023-03-15T04:42:03.669Z,0.00
2023-03-15T04:43:03.961Z,0.00
2023-03-15T04:44:04.293Z,0.00
2023-03-15T04:45:04.557Z,0.00
2023-03-15T04:46:04.933Z,0.00
2023-03-15T04:47:05.348Z,0.00
2023-03-15T04:48:05.565Z,0.00
2023-03-15T04:49:05.856Z,0.00
2023-03-15T04:50:06.226Z,0.00
2023-03-15T04:51:06.562Z,0.00
2023-03-15T04:52:06.846Z,0.00
2023-03-15T04:53:07.157Z,0.00
2023-03-15T04:54:07.483Z,0.00
2023-03-15T04:55:07.801Z,0.00
2023-03-15T04:56:08.126Z,0.00
2023-03-15T04:57:08.538Z,0.00
2023-03-15T04:58:08.708Z,0.00
2023-03-15T04:59:09.026Z,0.00
2023-03-15T05:00:09.351Z,0.00
2023-03-15T05:01:09.659Z,0.00
2023-03-15T05:02:10.002Z,0.00
2023-03-15T05:03:10.259Z,0.00
2023-03-15T05:04:10.544Z,0.00
2023-03-15T05:05:10.846Z,0.00
2023-03-15T05:06:11.196Z,0.00
2023-03-15T05:07:11.503Z,0.00
2023-03-15T05:08:11.836Z,0.00
2023-03-15T05:09:12.190Z,0.00
2023-03-15T05:10:12.420Z,0.00
2023-03-15T05:11:12.689Z,0.00
2023-03-15T05:12:13.007Z,0.00
2023-03-15T05:13:13.352Z,0.00
2023-03-15T05:14:13.700Z,0.00
2023-03-15T05:15:13.997Z,0.00
2023-03-15T05:16:14.296Z,0.00
2023-03-15T05:17:14.499Z,0.00
2023-03-15T05:18:14.883Z,0.00
2023-03-15T05:19:15.168Z,0.00
2023-03-15T05:20:15.409Z,0.00
2023-03-15T05:21:15.702Z,0.00
2023-03-15T05:22:15.890Z,0.00
2023-03-15T05:23:16.252Z,0.00
2023-03-15T05:24:16.508Z,0.00
2023-03-15T05:25:16.732Z,0.00
2023-03-15T05:26:17.127Z,0.00
2023-03-15T05:27:17.345Z,0.00
2023-03-15T05:28:17.589Z,0.00
2023-03-15T05:29:17.926Z,0.00
2023-03-15T05:30:18.247Z,0.00
2023-03-15T05:31:18.472Z,0.00
2023-03-15T05:32:18.738Z,0.00
2023-03-15T05:33:18.903Z,0.00
2023-03-15T05:34:19.287Z,0.00
2023-03-15T05:35:19.513Z,0.00
2023-03-15T05:36:19.741Z,0.00
2023-03-15T05:37:19.971Z,0.00
2023-03-15T05:38:20.206Z,0.00
2023-03-15T05:39:21.061Z,0.00
2023-03-15T05:40:20.785Z,0.00
2023-03-15T05:41:21.085Z,0.00
2023-03-15T05:42:21.388Z,0.00
2023-03-15T05:43:21.702Z,0.00
2023-03-15T05:44:21.934Z,0.00
2023-03-15T05:45:22.225Z,0.00
2023-03-15T05:46:22.508Z,0.00
2023-03-15T05:47:22.728Z,0.00
2023-03-15T05:48:23.056Z,0.00
2023-03-15T05:49:23.429Z,0.00
2023-03-15T05:50:23.543Z,0.00
2023-03-15T05:51:23.842Z,0.00
2023-03-15T05:52:24.060Z,0.00
2023-03-15T05:53:24.319Z,0.00
2023-03-15T05:54:24.777Z,0.00
2023-03-15T05:55:24.866Z,0.00
2023-03-15T05:56:25.084Z,0.00
2023-03-15T05:57:25.462Z,0.00
2023-03-15T05:58:25.676Z,0.00
2023-03-15T05:59:26.044Z,0.00
2023-03-15T06:00:26.310Z,0.00
2023-03-15T06:01:26.556Z,0.00
2023-03-15T06:02:26.805Z,0.00
2023-03-15T06:03:27.062Z,0.00
2023-03-15T06:04:27.286Z,0.00
2023-03-15T06:05:27.688Z,0.00
2023-03-15T06:06:27.874Z,0.00
2023-03-15T06:07:28.233Z,0.00
2023-03-15T06:08:28.475Z,0.00
2023-03-15T06:09:28.731Z,0.00
2023-03-15T06:10:29.055Z,0.00
2023-03-15T06:11:29.331Z,0.00
2023-03-15T06:12:30.464Z,0.00
2023-03-15T06:13:29.853Z,0.00
2023-03-15T06:14:30.110Z,0.00
2023-03-15T06:15:30.420Z,0.00
2023-03-15T06:16:30.641Z,0.00
2023-03-15T06:17:30.867Z,0.00
2023-03-15T06:18:31.144Z,0.00
2023-03-15T06:19:31.435Z,0.00
2023-03-15T06:20:46.594Z,0.00
2023-03-15T06:21:32.007Z,0.00
2023-03-15T06:22:32.307Z,0.00
2023-03-15T06:23:32.529Z,0.00
2023-03-15T06:24:32.859Z,0.00
2023-03-15T06:25:33.027Z,0.00
2023-03-15T06:26:33.250Z,0.00
2023-03-15T06:27:33.525Z,0.00
2023-03-15T06:28:33.799Z,0.00
2023-03-15T06:29:34.074Z,0.00
2023-03-15T06:30:34.378Z,0.00
2023-03-15T06:31:34.615Z,0.00
2023-03-15T06:32:34.871Z,0.00
2023-03-15T06:33:35.191Z,0.00
2023-03-15T06:34:35.462Z,0.00
2023-03-15T06:35:35.685Z,5.62
2023-03-15T06:36:36.808Z,5.62
2023-03-15T06:37:36.206Z,5.62
2023-03-15T06:38:36.728Z,5.62
2023-03-15T06:39:36.734Z,5.62
2023-03-15T06:40:37.134Z,5.62
2023-03-15T06:41:37.407Z,5.62
2023-03-15T06:42:37.707Z,5.62
2023-03-15T06:43:37.937Z,5.62
2023-03-15T06:44:38.184Z,5.62
2023-03-15T06:45:38.440Z,5.62
2023-03-15T06:46:40.835Z,5.62
2023-03-15T06:47:39.032Z,5.62
2023-03-15T06:48:39.300Z,5.62
2023-03-15T06:49:39.535Z,5.62
2023-03-15T06:50:46.762Z,5.62
2023-03-15T06:51:41.040Z,5.62
2023-03-15T06:52:40.295Z,5.62
2023-03-15T06:53:40.554Z,5.62
2023-03-15T06:54:40.801Z,5.62
2023-03-15T06:55:41.092Z,5.62
2023-03-15T06:56:41.347Z,5.62
2023-03-15T06:57:44.579Z,5.62
2023-03-15T06:58:41.844Z,11.25
2023-03-15T06:59:42.141Z,11.25
2023-03-15T07:00:42.371Z,11.25
2023-03-15T07:01:42.708Z,5.62
2023-03-15T07:02:43.022Z,5.62
2023-03-15T07:03:43.749Z,5.62
2023-03-15T07:04:44.247Z,5.62
2023-03-15T07:05:43.862Z,5.62
2023-03-15T07:06:44.193Z,11.25
2023-03-15T07:07:44.395Z,11.25
2023-03-15T07:08:44.714Z,11.25
2023-03-15T07:09:45.022Z,11.25
2023-03-15T07:10:45.302Z,11.25
2023-03-15T07:11:45.592Z,11.25
2023-03-15T07:12:45.821Z,11.25
2023-03-15T07:13:46.075Z,11.25
2023-03-15T07:14:46.351Z,5.62
2023-03-15T07:15:46.668Z,11.25
2023-03-15T07:16:46.872Z,11.25
2023-03-15T07:17:47.107Z,11.25
2023-03-15T07:18:47.398Z,11.25
2023-03-15T07:19:56.224Z,11.25
2023-03-15T07:20:49.015Z,11.25
2023-03-15T07:21:48.156Z,11.25
2023-03-15T07:22:48.430Z,16.88
2023-03-15T07:23:48.729Z,16.88
2023-03-15T07:24:48.947Z,16.88
2023-03-15T07:25:55.092Z,16.88
2023-03-15T07:26:50.564Z,16.88
2023-03-15T07:27:49.798Z,11.25
2023-03-15T07:28:50.297Z,11.25
2023-03-15T07:29:50.389Z,11.25
2023-03-15T07:30:50.650Z,11.25
2023-03-15T07:31:50.947Z,5.62
2023-03-15T07:32:51.287Z,5.62
2023-03-15T07:33:51.461Z,11.25
2023-03-15T07:34:51.748Z,11.25
2023-03-15T07:35:52.077Z,11.25
2023-03-15T07:36:52.277Z,11.25
2023-03-15T07:37:53.429Z,5.62
2023-03-15T07:38:52.843Z,11.25
2023-03-15T07:39:53.185Z,11.25
2023-03-15T07:40:55.788Z,11.25
2023-03-15T07:41:54.205Z,11.25
2023-03-15T07:42:56.681Z,16.88
2023-03-15T07:43:54.368Z,16.88
2023-03-15T07:44:54.516Z,16.88
2023-03-15T07:46:15.851Z,16.88
2023-03-15T07:46:55.152Z,16.88
2023-03-15T07:47:56.747Z,16.88
2023-03-15T07:48:55.582Z,16.88
2023-03-15T07:49:55.875Z,16.88
2023-03-15T07:50:56.772Z,16.88
2023-03-15T07:51:57.299Z,11.25
2023-03-15T07:52:56.680Z,5.62
2023-03-15T07:53:57.369Z,5.62
2023-03-15T07:54:57.185Z,5.62
2023-03-15T07:55:57.472Z,5.62
2023-03-15T07:56:57.714Z,11.25
2023-03-15T07:57:58.370Z,11.25
2023-03-15T07:58:58.309Z,11.25
2023-03-15T07:59:58.593Z,16.88
2023-03-15T08:00:58.818Z,16.88
2023-03-15T08:02:01.609Z,16.88
2023-03-15T08:02:59.386Z,16.88
2023-03-15T08:04:00.228Z,16.88
2023-03-15T08:04:59.853Z,16.88
2023-03-15T08:06:00.122Z,22.50
2023-03-15T08:07:00.498Z,22.50
2023-03-15T08:08:00.745Z,22.50
2023-03-15T08:09:00.989Z,22.50
2023-03-15T08:10:02.162Z,22.50
2023-03-15T08:11:01.560Z,22.50
2023-03-15T08:12:01.818Z,22.50
2023-03-15T08:13:02.151Z,22.50
2023-03-15T08:14:03.337Z,22.50
2023-03-15T08:15:02.704Z,22.50
2023-03-15T08:16:02.927Z,22.50
2023-03-15T08:17:03.118Z,22.50
2023-03-15T08:18:04.676Z,16.88
2023-03-15T08:19:03.624Z,16.88
2023-03-15T08:20:03.871Z,16.88
2023-03-15T08:21:04.167Z,11.25
2023-03-15T08:22:04.462Z,16.88
2023-03-15T08:23:05.178Z,16.88
2023-03-15T08:24:05.026Z,16.88
2023-03-15T08:25:05.288Z,22.50
2023-03-15T08:26:06.559Z,22.50
2023-03-15T08:27:05.840Z,22.50
2023-03-15T08:28:06.070Z,22.50
2023-03-15T08:29:11.134Z,22.50
2023-03-15T08:30:07.592Z,16.88
2023-03-15T08:31:07.005Z,16.88
2023-03-15T08:32:07.333Z,16.88
2023-03-15T08:33:07.641Z,16.88
2023-03-15T08:34:07.863Z,16.88
2023-03-15T08:35:08.123Z,16.88
2023-03-15T08:36:08.450Z,16.88
2023-03-15T08:37:10.223Z,16.88
2023-03-15T08:38:09.004Z,11.25
2023-03-15T08:39:09.640Z,11.25
2023-03-15T08:40:09.517Z,11.25
2023-03-15T08:41:09.715Z,11.25
2023-03-15T08:42:09.999Z,5.62
2023-03-15T08:43:10.316Z,5.62
2023-03-15T08:44:10.781Z,5.62
2023-03-15T08:45:10.834Z,11.25
2023-03-15T08:46:11.156Z,11.25
2023-03-15T08:47:11.646Z,11.25
2023-03-15T08:48:11.638Z,11.25
2023-03-15T08:49:11.900Z,11.25
2023-03-15T08:50:12.077Z,11.25
2023-03-15T08:51:12.528Z,16.88
2023-03-15T08:52:12.824Z,16.88
2023-03-15T08:53:13.036Z,16.88
2023-03-15T08:54:13.396Z,16.88
2023-03-15T08:55:13.490Z,16.88
2023-03-15T08:56:13.736Z,11.25
2023-03-15T08:57:14.125Z,11.25
2023-03-15T08:58:14.239Z,11.25
2023-03-15T08:59:29.148Z,11.25
2023-03-15T09:00:15.711Z,11.25
2023-03-15T09:01:14.953Z,11.25
2023-03-15T09:02:15.271Z,16.88
2023-03-15T09:03:15.525Z,16.88
2023-03-15T09:04:15.870Z,16.88
2023-03-15T09:05:16.109Z,11.25
2023-03-15T09:06:16.334Z,11.25
2023-03-15T09:07:16.553Z,5.62
2023-03-15T09:08:16.972Z,5.62
2023-03-15T09:09:17.189Z,5.62
2023-03-15T09:10:17.469Z,5.62
2023-03-15T09:11:17.924Z,5.62
2023-03-15T09:12:18.226Z,5.62
2023-03-15T09:13:18.305Z,5.62
2023-03-15T09:14:18.587Z,5.62
2023-03-15T09:15:19.749Z,5.62
2023-03-15T09:16:19.290Z,5.62
2023-03-15T09:17:19.393Z,5.62
2023-03-15T09:18:22.701Z,5.62
2023-03-15T09:19:20.657Z,5.62
2023-03-15T09:20:20.271Z,5.62
2023-03-15T09:21:20.926Z,11.25
2023-03-15T09:22:38.138Z,11.25
2023-03-15T09:23:22.076Z,11.25
2023-03-15T09:24:21.362Z,11.25
2023-03-15T09:25:21.645Z,11.25
2023-03-15T09:26:21.914Z,11.25
2023-03-15T09:27:22.232Z,11.25
2023-03-15T09:28:22.413Z,11.25
2023-03-15T09:29:22.636Z,11.25
2023-03-15T09:30:23.049Z,11.25
2023-03-15T09:31:23.248Z,11.25
2023-03-15T09:32:23.525Z,11.25
2023-03-15T09:33:23.721Z,11.25
2023-03-15T09:34:25.388Z,11.25
2023-03-15T09:35:24.395Z,11.25
2023-03-15T09:36:24.622Z,11.25
2023-03-15T09:37:24.928Z,16.88
2023-03-15T09:38:25.135Z,16.88
2023-03-15T09:39:25.402Z,16.88
2023-03-15T09:40:25.688Z,16.88
2023-03-15T09:41:25.943Z,16.88
2023-03-15T09:42:26.196Z,16.88
2023-03-15T09:43:26.622Z,16.88
2023-03-15T09:44:26.704Z,16.88
2023-03-15T09:45:26.943Z,22.50
2023-03-15T09:46:27.247Z,22.50
2023-03-15T09:47:27.442Z,28.12
2023-03-15T09:48:27.771Z,28.12
2023-03-15T09:49:27.978Z,33.75
2023-03-15T09:50:28.240Z,28.12
2023-03-15T09:51:28.481Z,28.12
2023-03-15T09:52:28.805Z,16.88
2023-03-15T09:53:30.028Z,16.88
2023-03-15T09:54:29.452Z,16.88
2023-03-15T09:55:29.663Z,11.25
2023-03-15T09:56:29.996Z,11.25
2023-03-15T09:57:30.245Z,16.88
2023-03-15T09:58:30.479Z,16.88
2023-03-15T09:59:31.002Z,11.25
2023-03-15T10:00:31.046Z,11.25
2023-03-15T10:01:31.356Z,16.88
2023-03-15T10:02:33.305Z,22.50
2023-03-15T10:03:31.963Z,22.50
2023-03-15T10:04:32.795Z,22.50
2023-03-15T10:05:32.986Z,22.50
2023-03-15T10:06:32.959Z,28.12
2023-03-15T10:07:33.849Z,22.50
2023-03-15T10:08:33.307Z,22.50
2023-03-15T10:09:33.755Z,22.50
2023-03-15T10:10:33.822Z,28.12
2023-03-15T10:11:34.068Z,28.12
2023-03-15T10:12:35.316Z,33.75
2023-03-15T10:13:34.591Z,39.38
2023-03-15T10:14:34.842Z,45.00
2023-03-15T10:15:35.141Z,50.62
2023-03-15T10:16:35.482Z,56.25
2023-03-15T10:17:35.809Z,61.88
2023-03-15T10:18:36.040Z,56.25
2023-03-15T10:19:36.233Z,50.62
2023-03-15T10:20:36.532Z,39.38
2023-03-15T10:21:36.805Z,39.38
2023-03-15T10:22:39.124Z,33.75
2023-03-15T10:23:37.314Z,33.75
2023-03-15T10:24:37.879Z,28.12
2023-03-15T10:25:37.877Z,28.12
2023-03-15T10:26:38.788Z,28.12
2023-03-15T10:27:38.551Z,39.38
2023-03-15T10:28:38.819Z,39.38
2023-03-15T10:29:39.034Z,39.38
2023-03-15T10:30:39.836Z,39.38
2023-03-15T10:31:44.638Z,45.00
2023-03-15T10:32:41.087Z,50.62
2023-03-15T10:33:40.156Z,61.88
2023-03-15T10:34:40.475Z,45.00
2023-03-15T10:35:40.734Z,28.12
2023-03-15T10:36:41.062Z,28.12
2023-03-15T10:37:42.816Z,28.12
2023-03-15T10:38:41.890Z,28.12
2023-03-15T10:39:43.937Z,28.12
2023-03-15T10:40:42.235Z,28.12
2023-03-15T10:41:43.272Z,22.50
2023-03-15T10:42:42.682Z,16.88
2023-03-15T10:43:44.749Z,16.88
2023-03-15T10:44:43.422Z,22.50
2023-03-15T10:45:43.474Z,22.50
2023-03-15T10:46:43.812Z,16.88
2023-03-15T10:47:50.436Z,16.88
2023-03-15T10:48:45.295Z,11.25
2023-03-15T10:49:44.549Z,11.25
2023-03-15T10:50:44.790Z,16.88
2023-03-15T10:51:45.092Z,16.88
2023-03-15T10:52:45.385Z,22.50
2023-03-15T10:53:45.597Z,28.12
2023-03-15T10:54:46.416Z,33.75
2023-03-15T10:55:46.117Z,28.12
2023-03-15T10:56:46.485Z,28.12
2023-03-15T10:57:46.669Z,33.75
2023-03-15T10:59:09.196Z,39.38
2023-03-15T10:59:48.248Z,39.38
2023-03-15T11:00:47.523Z,50.62
2023-03-15T11:01:47.860Z,56.25
2023-03-15T11:02:48.121Z,61.88
2023-03-15T11:03:48.413Z,56.25
2023-03-15T11:04:48.729Z,56.25
2023-03-15T11:05:48.972Z,56.25
2023-03-15T11:06:49.221Z,50.62
2023-03-15T11:07:49.465Z,45.00
2023-03-15T11:08:49.770Z,50.62
2023-03-15T11:09:49.994Z,45.00
2023-03-15T11:10:50.260Z,56.25
2023-03-15T11:12:11.536Z,61.88
2023-03-15T11:13:11.860Z,50.62
2023-03-15T11:13:51.124Z,45.00
2023-03-15T11:14:51.441Z,45.00
2023-03-15T11:15:51.773Z,45.00
2023-03-15T11:16:52.088Z,45.00
2023-03-15T11:17:52.322Z,39.38
2023-03-15T11:19:13.516Z,33.75
2023-03-15T11:20:13.881Z,33.75
2023-03-15T11:20:53.238Z,33.75
2023-03-15T11:22:14.501Z,33.75
2023-03-15T11:22:53.833Z,50.62
2023-03-15T11:23:54.055Z,39.38
2023-03-15T11:24:54.224Z,33.75
2023-03-15T11:27:09.877Z,219628.12
2023-03-15T11:28:10.094Z,219628.12
2023-03-15T11:29:10.407Z,219628.12
2023-03-15T11:30:10.670Z,219628.12
2023-03-15T11:31:10.974Z,219628.12
2023-03-15T11:32:11.194Z,219628.12
2023-03-15T11:33:11.506Z,219628.12
2023-03-15T11:34:11.737Z,219628.12
2023-03-15T11:35:12.480Z,219628.12
2023-03-15T11:36:12.507Z,219628.12
2023-03-15T11:37:13.240Z,219628.12
2023-03-15T11:38:15.254Z,219628.12
2023-03-15T11:39:13.161Z,219628.12
2023-03-15T11:40:15.510Z,219628.12
2023-03-15T11:41:13.634Z,219628.12
2023-03-15T11:42:13.872Z,219628.12
2023-03-15T11:43:14.146Z,219628.12
2023-03-15T11:44:14.420Z,219628.12
2023-03-15T11:45:14.741Z,219628.12
2023-03-15T11:46:15.215Z,219628.12
2023-03-15T11:47:15.366Z,219628.12
2023-03-15T11:48:15.668Z,219628.12
2023-03-15T11:49:15.872Z,219628.12
2023-03-15T11:50:16.205Z,219628.12
2023-03-15T11:51:16.545Z,219628.12
2023-03-15T11:52:16.734Z,219628.12
2023-03-15T11:53:17.016Z,219628.12
2023-03-15T11:54:17.369Z,219628.12
2023-03-15T11:55:17.672Z,219628.12
2023-03-15T11:56:18.783Z,219628.12
2023-03-15T11:57:18.334Z,219628.12
2023-03-15T11:58:18.345Z,219628.12
2023-03-15T11:59:18.885Z,219628.12
2023-03-15T12:00:18.977Z,219628.12
2023-03-15T12:01:19.192Z,219628.12
2023-03-15T12:02:20.132Z,219628.12
2023-03-15T12:03:20.198Z,219628.12
2023-03-15T12:04:20.031Z,219628.12
2023-03-15T12:05:20.329Z,219628.12
2023-03-15T12:06:20.690Z,219628.12
2023-03-15T12:07:20.921Z,219628.12
2023-03-15T12:08:21.120Z,219628.12
2023-03-15T12:09:22.865Z,219628.12
2023-03-15T12:10:21.727Z,219628.12
2023-03-15T12:11:22.114Z,219628.12
2023-03-15T12:12:22.275Z,219628.12
2023-03-15T12:13:22.539Z,219628.12
2023-03-15T12:14:22.787Z,219628.12
2023-03-15T12:15:23.149Z,219628.12
2023-03-15T12:16:23.526Z,219628.12
2023-03-15T12:17:23.667Z,219628.12
2023-03-15T12:18:23.964Z,219628.12
2023-03-15T12:19:24.212Z,219628.12
2023-03-15T12:20:24.461Z,219628.12
2023-03-15T12:21:24.868Z,219628.12
2023-03-15T12:22:24.964Z,219628.12
2023-03-15T12:23:25.219Z,219628.12
2023-03-15T12:24:25.572Z,219628.12
2023-03-15T12:25:25.821Z,219628.12
2023-03-15T12:26:26.055Z,219628.12
2023-03-15T12:27:26.328Z,219628.12
2023-03-15T12:28:27.511Z,219628.12
2023-03-15T12:29:26.942Z,219628.12
2023-03-15T12:30:27.188Z,219628.12
2023-03-15T12:31:27.442Z,219628.12
2023-03-15T12:32:27.713Z,219628.12
2023-03-15T12:33:27.973Z,219628.12
2023-03-15T12:34:28.242Z,219628.12
2023-03-15T12:35:28.474Z,219628.12
2023-03-15T12:36:28.684Z,219628.12
2023-03-15T12:37:28.951Z,219628.12
2023-03-15T12:38:29.254Z,219628.12
2023-03-15T12:39:29.531Z,219628.12
2023-03-15T12:40:29.784Z,219628.12
2023-03-15T12:41:30.154Z,219628.12
2023-03-15T12:42:30.392Z,219628.12
2023-03-15T12:43:30.662Z,219628.12
2023-03-15T12:44:30.913Z,219628.12
2023-03-15T12:45:31.157Z,219628.12
2023-03-15T12:46:31.508Z,219628.12
2023-03-15T12:47:31.767Z,219628.12
2023-03-15T12:48:31.933Z,219628.12
2023-03-15T12:49:32.172Z,219628.12
2023-03-15T12:50:32.394Z,219628.12
2023-03-15T12:51:32.693Z,219628.12
2023-03-15T12:52:32.932Z,219628.12
2023-03-15T12:53:33.221Z,219628.12
2023-03-15T12:54:33.462Z,219628.12
2023-03-15T12:55:33.780Z,219628.12
2023-03-15T12:56:33.997Z,219628.12
2023-03-15T12:57:34.254Z,219628.12
2023-03-15T12:58:34.508Z,219628.12
2023-03-15T12:59:34.751Z,219628.12